Time;durP1;ratioP1;P1;durP2;ratioP2;P2;SDS_P1;SDS_P2;PMS_P1;PMS_P2;Temp;Humidity;BMP_temperature;BMP_pressure;BME280_temperature;BME280_humidity;BME280_pressure;Samples;Min_cycle;Max_cycle;Signal;HPM_P1;HPM_P2
2021/09/20 00:00:06;;;;;;;8.47;7.37;;;13.70;99.90;;;;;;5033875;28;20203;-71
2021/09/20 00:02:32;;;;;;;9.77;7.57;;;13.60;99.90;;;;;;5034092;28;20171;-71
2021/09/20 00:04:57;;;;;;;8.70;7.80;;;13.60;99.90;;;;;;5034143;28;20421;-71
2021/09/20 00:07:23;;;;;;;9.10;7.50;;;13.70;99.90;;;;;;5031312;28;20179;-71
2021/09/20 00:09:48;;;;;;;7.67;6.97;;;13.60;99.90;;;;;;5030255;28;20652;-71
2021/09/20 00:12:14;;;;;;;9.50;8.60;;;13.60;99.90;;;;;;5033904;28;20226;-71
2021/09/20 00:14:40;;;;;;;8.47;7.57;;;13.50;99.90;;;;;;5033766;28;20171;-71
2021/09/20 00:17:05;;;;;;;8.07;7.07;;;13.50;99.90;;;;;;5033459;28;20194;-71
2021/09/20 00:19:31;;;;;;;8.70;7.57;;;13.40;99.90;;;;;;5021376;28;20207;-71
2021/09/20 00:21:56;;;;;;;9.43;8.53;;;13.40;99.90;;;;;;5033304;28;20191;-71
2021/09/20 00:24:22;;;;;;;8.20;7.40;;;13.50;99.90;;;;;;5033729;28;20178;-71
2021/09/20 00:26:47;;;;;;;9.40;8.50;;;13.60;99.90;;;;;;5032248;28;20422;-71
2021/09/20 00:29:13;;;;;;;9.60;7.97;;;13.70;99.90;;;;;;5028086;28;20198;-71
2021/09/20 00:31:39;;;;;;;9.80;8.80;;;13.60;99.90;;;;;;5028362;28;20289;-71
2021/09/20 00:34:04;;;;;;;8.90;8.07;;;13.50;99.90;;;;;;5033636;28;20240;-71
2021/09/20 00:36:30;;;;;;;8.87;7.97;;;13.50;99.90;;;;;;5033223;28;20206;-72
2021/09/20 00:38:55;;;;;;;8.57;7.77;;;13.40;99.90;;;;;;5031895;28;20209;-71
2021/09/20 00:41:21;;;;;;;8.93;8.13;;;13.40;99.90;;;;;;5025182;28;20763;-71
2021/09/20 00:43:46;;;;;;;9.53;7.50;;;13.30;99.90;;;;;;5029174;28;20536;-71
2021/09/20 00:46:13;;;;;;;8.97;8.07;;;13.30;99.90;;;;;;5050173;28;20222;-72
2021/09/20 00:48:39;;;;;;;8.63;7.80;;;13.20;99.90;;;;;;5032772;28;20187;-71
2021/09/20 00:51:05;;;;;;;8.40;7.60;;;13.20;99.90;;;;;;5033169;28;20802;-71
2021/09/20 00:53:30;;;;;;;9.13;8.23;;;13.10;99.90;;;;;;5025709;28;20556;-71
2021/09/20 00:55:56;;;;;;;9.20;8.30;;;13.10;99.90;;;;;;5029651;28;20182;-72
2021/09/20 00:58:22;;;;;;;9.87;7.97;;;13.00;99.90;;;;;;5034915;28;20249;-71
2021/09/20 01:00:48;;;;;;;8.50;7.40;;;13.00;99.90;;;;;;5034940;28;20493;-71
2021/09/20 01:03:13;;;;;;;8.77;7.50;;;12.90;99.90;;;;;;5036818;28;20424;-70
2021/09/20 01:05:39;;;;;;;8.67;7.77;;;12.90;99.90;;;;;;5032230;28;20185;-71
2021/09/20 01:08:05;;;;;;;9.10;7.83;;;12.80;99.90;;;;;;5037769;28;20488;-72
2021/09/20 01:10:30;;;;;;;8.47;7.67;;;12.80;99.90;;;;;;5034200;28;20199;-71
2021/09/20 01:12:56;;;;;;;9.57;8.57;;;12.80;99.90;;;;;;5034393;28;20202;-71
2021/09/20 01:15:22;;;;;;;8.67;7.87;;;12.70;99.90;;;;;;5023991;28;20425;-71
2021/09/20 01:17:47;;;;;;;10.70;7.63;;;12.80;99.90;;;;;;5035756;28;20183;-70
2021/09/20 01:20:13;;;;;;;8.40;7.47;;;12.80;99.90;;;;;;5034953;28;20301;-71
2021/09/20 01:22:40;;;;;;;9.13;7.70;;;12.80;99.90;;;;;;5035912;28;20178;-71
2021/09/20 01:25:07;;;;;;;9.17;8.23;;;12.80;99.90;;;;;;5032048;28;20253;-71
2021/09/20 01:27:33;;;;;;;10.67;8.77;;;12.80;99.90;;;;;;5029461;28;20637;-71
2021/09/20 01:29:58;;;;;;;11.70;7.73;;;12.90;99.90;;;;;;5034050;28;20432;-72
2021/09/20 01:32:24;;;;;;;9.70;8.57;;;12.90;99.90;;;;;;5035839;28;20195;-71
2021/09/20 01:34:49;;;;;;;9.10;8.20;;;12.90;99.90;;;;;;5035572;28;20256;-71
2021/09/20 01:37:15;;;;;;;9.87;8.07;;;12.90;99.90;;;;;;5030610;28;20217;-71
2021/09/20 01:39:40;;;;;;;9.50;8.50;;;12.80;99.90;;;;;;5035348;28;20257;-72
2021/09/20 01:42:07;;;;;;;9.87;8.23;;;12.70;99.90;;;;;;5035600;28;20203;-71
2021/09/20 01:44:32;;;;;;;9.03;8.13;;;12.60;99.90;;;;;;5035699;28;20183;-71
2021/09/20 01:46:58;;;;;;;9.27;8.37;;;12.70;99.90;;;;;;5027559;28;20851;-71
2021/09/20 01:49:26;;;;;;;8.50;7.60;;;12.70;99.90;;;;;;5015563;28;20306;-72
2021/09/20 01:51:52;;;;;;;9.63;8.13;;;12.70;99.90;;;;;;4992337;28;1077246;-72
2021/09/20 01:54:18;;;;;;;9.23;8.30;;;12.70;99.90;;;;;;5033504;28;20179;-70
2021/09/20 01:56:44;;;;;;;9.27;8.23;;;12.70;99.90;;;;;;5049937;28;20420;-70
2021/09/20 01:59:10;;;;;;;9.30;8.40;;;12.70;99.90;;;;;;5025202;28;20464;-71
2021/09/20 02:01:35;;;;;;;9.30;8.30;;;12.70;99.90;;;;;;5036206;28;20206;-71
2021/09/20 02:04:01;;;;;;;8.70;7.80;;;12.70;99.90;;;;;;5036157;28;20217;-71
2021/09/20 02:06:27;;;;;;;9.70;8.03;;;12.80;99.90;;;;;;5036176;28;20179;-71
2021/09/20 02:08:54;;;;;;;10.13;8.30;;;12.80;99.90;;;;;;5029371;28;20443;-71
2021/09/20 02:11:21;;;;;;;9.10;8.10;;;12.90;99.90;;;;;;5034904;28;20958;-71
2021/09/20 02:13:47;;;;;;;10.10;8.20;;;12.90;99.90;;;;;;5035609;28;20790;-72
2021/09/20 02:16:13;;;;;;;12.00;9.00;;;13.00;99.90;;;;;;5053575;28;20516;-71
2021/09/20 02:18:40;;;;;;;10.80;7.50;;;13.10;99.90;;;;;;5040247;28;20860;-71
2021/09/20 02:21:07;;;;;;;9.33;8.30;;;13.00;99.90;;;;;;5049993;28;20443;-71
2021/09/20 02:23:33;;;;;;;9.13;7.93;;;13.00;99.90;;;;;;5049819;28;20416;-71
2021/09/20 02:26:00;;;;;;;10.07;8.87;;;13.00;99.90;;;;;;5041520;28;20424;-72
2021/09/20 02:28:26;;;;;;;9.93;8.90;;;12.90;99.90;;;;;;5046313;28;20414;-71
2021/09/20 02:30:52;;;;;;;10.67;8.13;;;12.90;99.90;;;;;;5045945;28;20445;-72
2021/09/20 02:33:17;;;;;;;9.50;8.50;;;12.90;99.90;;;;;;5040572;28;20823;-72
2021/09/20 02:35:43;;;;;;;9.50;8.50;;;12.90;99.90;;;;;;5053737;28;20473;-72
2021/09/20 02:38:09;;;;;;;10.50;8.90;;;13.00;99.90;;;;;;5059623;28;20196;-72
2021/09/20 02:40:51;;;;;;;9.03;8.13;;;13.00;99.90;;;;;;5036904;28;20493;-72
2021/09/20 02:43:17;;;;;;;9.60;8.60;;;13.00;99.90;;;;;;5036295;28;20430;-71
2021/09/20 02:45:43;;;;;;;9.03;8.13;;;13.00;99.90;;;;;;5035501;28;20480;-70
2021/09/20 02:48:08;;;;;;;9.27;8.17;;;13.10;99.90;;;;;;5027628;28;20199;-71
2021/09/20 02:50:34;;;;;;;9.73;8.77;;;13.10;99.90;;;;;;5027029;28;20613;-71
2021/09/20 02:53:00;;;;;;;10.37;9.37;;;13.20;99.90;;;;;;5031784;28;20190;-71
2021/09/20 02:55:26;;;;;;;10.30;9.27;;;13.20;99.90;;;;;;5016137;28;20317;-72
2021/09/20 02:57:51;;;;;;;8.87;7.97;;;13.30;99.90;;;;;;5015937;28;20183;-70
2021/09/20 03:00:17;;;;;;;9.70;8.57;;;13.40;99.90;;;;;;5015080;28;20204;-71
2021/09/20 03:02:42;;;;;;;9.60;8.50;;;13.40;99.90;;;;;;5015577;28;20180;-71
2021/09/20 03:05:08;;;;;;;11.90;7.87;;;13.50;99.90;;;;;;5016804;28;20262;-71
2021/09/20 03:07:34;;;;;;;9.13;8.13;;;13.40;99.90;;;;;;5015159;28;20211;-70
2021/09/20 03:10:00;;;;;;;9.40;8.40;;;13.50;99.90;;;;;;5015128;28;20414;-71
2021/09/20 03:12:25;;;;;;;10.97;9.17;;;13.50;99.90;;;;;;5015178;28;20206;-71
2021/09/20 03:14:51;;;;;;;9.17;8.20;;;13.60;99.90;;;;;;5016299;28;20187;-71
2021/09/20 03:17:16;;;;;;;9.20;8.30;;;13.50;99.90;;;;;;5015333;28;20179;-71
2021/09/20 03:19:42;;;;;;;11.77;8.90;;;13.50;99.90;;;;;;5014003;28;20207;-71
2021/09/20 03:22:08;;;;;;;8.80;7.87;;;13.50;99.90;;;;;;5014962;28;20298;-71
2021/09/20 03:24:33;;;;;;;10.37;9.30;;;13.40;99.90;;;;;;4997174;28;20186;-71
2021/09/20 03:26:59;;;;;;;10.53;8.53;;;13.30;99.90;;;;;;5015871;28;20501;-71
2021/09/20 03:29:24;;;;;;;11.67;9.20;;;13.20;99.90;;;;;;5014184;28;20185;-70
2021/09/20 03:31:50;;;;;;;9.43;8.33;;;13.30;99.90;;;;;;5014960;28;20313;-71
2021/09/20 03:34:16;;;;;;;9.83;8.83;;;13.30;99.90;;;;;;5014851;28;20183;-71
2021/09/20 03:36:42;;;;;;;9.80;8.80;;;13.30;99.90;;;;;;5025537;28;20528;-72
2021/09/20 03:39:07;;;;;;;8.90;8.00;;;13.40;99.90;;;;;;5016555;28;20226;-71
2021/09/20 03:41:33;;;;;;;10.57;8.23;;;13.40;99.90;;;;;;5034467;28;20202;-71
2021/09/20 03:43:59;;;;;;;11.30;8.33;;;13.50;99.90;;;;;;5034087;28;20178;-71
2021/09/20 03:46:26;;;;;;;10.00;9.00;;;13.50;99.90;;;;;;5014790;28;20418;-70
2021/09/20 03:48:52;;;;;;;9.47;8.47;;;13.50;99.90;;;;;;5033268;28;20194;-70
2021/09/20 03:51:17;;;;;;;10.93;8.90;;;13.50;99.90;;;;;;5039038;28;20441;-71
2021/09/20 03:53:43;;;;;;;9.40;8.40;;;13.60;99.90;;;;;;5035633;28;20536;-70
2021/09/20 03:56:08;;;;;;;8.80;7.83;;;13.60;99.90;;;;;;5053825;28;20166;-70
2021/09/20 03:58:35;;;;;;;8.93;8.03;;;13.50;99.90;;;;;;5032365;28;20274;-71
2021/09/20 04:01:01;;;;;;;11.50;8.97;;;13.50;99.90;;;;;;5016521;28;20249;-71
2021/09/20 04:03:27;;;;;;;11.93;9.27;;;13.50;99.90;;;;;;5024379;28;20454;-71
2021/09/20 04:05:52;;;;;;;10.93;8.90;;;13.50;99.90;;;;;;5024326;28;20257;-72
2021/09/20 04:08:18;;;;;;;10.00;8.73;;;13.50;99.90;;;;;;5021392;28;20209;-70
2021/09/20 04:10:44;;;;;;;11.10;8.30;;;13.50;99.90;;;;;;5030516;28;20213;-70
2021/09/20 04:13:10;;;;;;;10.10;9.07;;;13.50;99.90;;;;;;5026434;28;20187;-70
2021/09/20 04:15:38;;;;;;;9.77;8.63;;;13.40;99.90;;;;;;5028229;28;20221;-72
2021/09/20 04:18:05;;;;;;;8.97;8.07;;;13.30;99.90;;;;;;5031937;28;20899;-70
2021/09/20 04:20:31;;;;;;;12.30;9.37;;;13.30;99.90;;;;;;5022558;28;20477;-71
2021/09/20 04:22:56;;;;;;;9.13;8.10;;;13.40;99.90;;;;;;5012462;28;20501;-70
2021/09/20 04:25:22;;;;;;;11.00;8.60;;;13.40;99.90;;;;;;5013087;28;20183;-70
2021/09/20 04:27:48;;;;;;;10.63;8.40;;;13.40;99.90;;;;;;5012917;28;20171;-70
2021/09/20 04:30:14;;;;;;;10.33;8.83;;;13.40;99.90;;;;;;5027901;28;20174;-71
2021/09/20 04:32:40;;;;;;;10.67;9.00;;;13.30;99.90;;;;;;5009807;28;20438;-71
2021/09/20 04:35:07;;;;;;;13.30;9.97;;;13.20;99.90;;;;;;5027299;28;20445;-72
2021/09/20 04:37:32;;;;;;;13.10;9.30;;;13.20;99.90;;;;;;5030091;28;20484;-71
2021/09/20 04:39:58;;;;;;;12.10;9.47;;;13.20;99.90;;;;;;5030336;28;20826;-71
2021/09/20 04:42:23;;;;;;;9.97;8.60;;;13.20;99.90;;;;;;5031167;28;20199;-71
2021/09/20 04:44:49;;;;;;;10.30;9.20;;;13.20;99.90;;;;;;5041207;28;20664;-71
2021/09/20 04:47:14;;;;;;;9.60;8.60;;;13.20;99.90;;;;;;5044313;28;20240;-72
2021/09/20 04:49:41;;;;;;;11.83;9.90;;;13.20;99.90;;;;;;5051172;28;20659;-71
2021/09/20 04:52:07;;;;;;;11.10;8.50;;;13.20;99.90;;;;;;5031409;28;20235;-72
2021/09/20 04:54:33;;;;;;;10.93;9.40;;;13.20;99.90;;;;;;5016295;28;20549;-72
2021/09/20 04:56:59;;;;;;;10.43;9.33;;;13.20;99.90;;;;;;4994404;28;20465;-72
2021/09/20 04:59:25;;;;;;;10.23;9.13;;;13.10;99.90;;;;;;5029650;28;20468;-72
2021/09/20 05:01:50;;;;;;;9.43;7.83;;;13.00;99.90;;;;;;5050771;28;20206;-72
2021/09/20 05:04:16;;;;;;;9.33;8.20;;;13.10;99.90;;;;;;5036181;28;20230;-71
2021/09/20 05:06:41;;;;;;;10.70;9.23;;;13.10;99.90;;;;;;5011732;28;20673;-72
2021/09/20 05:09:09;;;;;;;11.70;9.50;;;13.10;99.90;;;;;;5011851;28;20588;-72
2021/09/20 05:11:36;;;;;;;10.83;9.50;;;13.00;99.90;;;;;;5011494;28;20251;-71
2021/09/20 05:14:05;;;;;;;11.63;9.73;;;13.00;99.90;;;;;;4994266;28;20446;-71
2021/09/20 05:16:31;;;;;;;13.67;9.23;;;13.10;99.90;;;;;;5039092;28;20469;-70
2021/09/20 05:18:57;;;;;;;10.30;8.43;;;13.20;99.90;;;;;;5034385;28;20527;-73
2021/09/20 05:21:25;;;;;;;10.10;9.03;;;13.20;99.90;;;;;;5050977;28;20916;-72
2021/09/20 05:23:51;;;;;;;10.83;9.30;;;13.30;99.90;;;;;;5034115;28;20263;-72
2021/09/20 05:26:18;;;;;;;10.00;9.00;;;13.40;99.90;;;;;;5006451;28;21007;-70
2021/09/20 05:28:44;;;;;;;13.83;9.17;;;13.50;99.90;;;;;;4994605;28;20196;-71
2021/09/20 05:31:10;;;;;;;11.17;9.00;;;13.40;99.90;;;;;;5013579;28;20525;-70
2021/09/20 05:33:35;;;;;;;10.30;9.10;;;13.40;99.90;;;;;;5013971;28;20978;-71
2021/09/20 05:36:05;;;;;;;11.87;9.70;;;13.40;99.90;;;;;;5019845;28;20264;-71
2021/09/20 05:38:35;;;;;;;13.57;9.93;;;13.40;99.90;;;;;;5012887;28;20219;-72
2021/09/20 05:41:00;;;;;;;11.47;9.37;;;13.50;99.90;;;;;;5012685;28;20516;-72
2021/09/20 05:43:26;;;;;;;9.80;8.60;;;13.60;99.90;;;;;;5012620;28;20561;-71
2021/09/20 05:45:52;;;;;;;10.30;9.00;;;13.50;99.90;;;;;;5038915;28;20563;-71
2021/09/20 05:48:20;;;;;;;10.73;9.63;;;13.50;99.90;;;;;;5016283;28;20212;-70
2021/09/20 05:50:46;;;;;;;10.40;8.60;;;13.60;99.90;;;;;;5053893;28;20515;-71
2021/09/20 05:53:13;;;;;;;10.73;7.97;;;13.60;99.90;;;;;;5057832;28;20457;-72
2021/09/20 05:55:39;;;;;;;9.23;8.33;;;13.60;99.90;;;;;;5061088;28;20420;-72
2021/09/20 05:58:05;;;;;;;9.60;8.67;;;13.60;99.90;;;;;;5062473;28;20464;-72
2021/09/20 06:00:31;;;;;;;10.83;9.53;;;13.70;99.90;;;;;;5057725;28;20491;-72
2021/09/20 06:02:56;;;;;;;11.53;8.37;;;13.70;99.90;;;;;;5041015;28;20413;-72
2021/09/20 06:05:22;;;;;;;10.30;9.20;;;13.70;99.90;;;;;;5036990;28;20545;-73
2021/09/20 06:07:48;;;;;;;9.97;8.97;;;13.80;99.90;;;;;;5033219;28;20167;-72
2021/09/20 06:10:15;;;;;;;9.40;8.40;;;13.90;99.90;;;;;;5017330;28;20175;-71
2021/09/20 06:12:41;;;;;;;9.73;8.07;;;13.90;99.90;;;;;;5036639;28;20636;-73
2021/09/20 06:15:08;;;;;;;9.57;8.57;;;13.90;99.90;;;;;;5037004;28;20415;-73
2021/09/20 06:17:34;;;;;;;10.43;8.70;;;14.00;99.90;;;;;;5036395;28;20178;-71
2021/09/20 06:20:00;;;;;;;11.93;9.80;;;14.00;99.90;;;;;;5034165;28;21045;-72
2021/09/20 06:22:25;;;;;;;12.97;9.00;;;14.00;99.90;;;;;;5018911;28;20796;-73
2021/09/20 06:24:51;;;;;;;13.70;9.13;;;14.00;99.90;;;;;;5018845;28;20167;-72
2021/09/20 06:27:17;;;;;;;12.00;9.80;;;14.00;99.90;;;;;;5036142;28;20628;-72
2021/09/20 06:29:42;;;;;;;9.73;8.30;;;14.00;99.90;;;;;;5030780;28;20187;-72
2021/09/20 06:32:08;;;;;;;9.60;8.30;;;14.00;99.90;;;;;;5016557;28;20200;-73
2021/09/20 06:34:34;;;;;;;11.50;9.23;;;14.00;99.90;;;;;;5016875;28;20225;-72
2021/09/20 06:37:00;;;;;;;10.00;8.73;;;14.00;99.90;;;;;;5016083;28;20209;-72
2021/09/20 06:39:26;;;;;;;10.23;8.20;;;14.00;99.90;;;;;;5016991;28;20283;-72
2021/09/20 06:41:51;;;;;;;14.20;9.40;;;14.00;99.90;;;;;;5016483;28;20441;-72
2021/09/20 06:44:17;;;;;;;12.03;8.80;;;14.00;99.90;;;;;;5014961;28;20174;-72
2021/09/20 06:46:42;;;;;;;9.30;7.90;;;14.10;99.90;;;;;;5036085;28;20174;-72
2021/09/20 06:49:08;;;;;;;9.00;8.10;;;14.20;99.90;;;;;;5036444;28;20194;-72
2021/09/20 06:51:34;;;;;;;9.87;8.40;;;14.20;99.90;;;;;;5017787;28;20711;-73
2021/09/20 06:53:59;;;;;;;9.73;8.83;;;14.20;99.90;;;;;;5025105;28;20542;-71
2021/09/20 06:56:25;;;;;;;9.87;8.87;;;14.20;99.90;;;;;;5015532;28;20179;-71
2021/09/20 06:58:51;;;;;;;9.63;8.63;;;14.30;99.90;;;;;;5015435;28;20179;-71
2021/09/20 07:01:17;;;;;;;9.30;8.37;;;14.20;99.90;;;;;;5015894;28;21013;-72
2021/09/20 07:03:43;;;;;;;8.83;7.93;;;14.00;99.90;;;;;;5019028;28;20583;-72
2021/09/20 07:06:08;;;;;;;9.57;8.47;;;14.10;99.90;;;;;;5035709;28;20421;-72
2021/09/20 07:08:35;;;;;;;15.43;8.50;;;14.20;99.90;;;;;;5018324;28;20213;-73
2021/09/20 07:11:00;;;;;;;9.70;8.60;;;14.20;99.90;;;;;;5035250;28;20740;-72
2021/09/20 07:13:26;;;;;;;13.00;8.80;;;14.10;99.90;;;;;;5035791;28;20501;-71
2021/09/20 07:15:52;;;;;;;15.20;7.83;;;14.10;99.90;;;;;;5033304;28;20234;-72
2021/09/20 07:18:18;;;;;;;8.30;7.33;;;14.10;99.90;;;;;;5033878;28;20248;-69
2021/09/20 07:20:44;;;;;;;10.90;8.87;;;14.10;99.90;;;;;;5035692;28;20465;-72
2021/09/20 07:23:11;;;;;;;11.47;8.03;;;14.00;99.90;;;;;;5035722;28;20270;-72
2021/09/20 07:25:37;;;;;;;10.87;7.80;;;14.00;99.90;;;;;;5030434;28;20446;-71
2021/09/20 07:28:03;;;;;;;8.50;7.70;;;14.10;99.90;;;;;;5035496;28;20492;-72
2021/09/20 07:30:29;;;;;;;12.07;8.70;;;14.20;99.90;;;;;;5035774;28;20214;-72
2021/09/20 07:32:55;;;;;;;10.07;8.60;;;14.20;99.90;;;;;;5035665;28;20432;-73
2021/09/20 07:35:21;;;;;;;12.10;9.67;;;14.20;99.90;;;;;;5033888;28;20504;-71
2021/09/20 07:37:52;;;;;;;10.17;9.07;;;14.30;99.90;;;;;;5020294;28;20282;-73
2021/09/20 07:40:20;;;;;;;11.50;8.93;;;14.30;99.90;;;;;;5034476;28;20993;-71
2021/09/20 07:42:47;;;;;;;9.23;8.30;;;14.40;99.90;;;;;;5033645;28;20894;-71
2021/09/20 07:45:14;;;;;;;8.50;7.63;;;14.40;99.90;;;;;;5035508;28;20813;-71
2021/09/20 07:47:40;;;;;;;10.35;8.20;;;14.50;99.90;;;;;;5008732;28;20415;-70
2021/09/20 07:50:08;;;;;;;7.60;6.90;;;14.60;99.90;;;;;;5038375;28;20265;-72
2021/09/20 07:52:34;;;;;;;8.10;7.33;;;14.60;99.90;;;;;;5033841;28;20194;-72
2021/09/20 07:54:59;;;;;;;8.27;7.50;;;14.70;99.90;;;;;;5035219;28;20454;-72
2021/09/20 07:57:26;;;;;;;8.40;7.70;;;14.80;99.90;;;;;;5035243;28;20421;-73
2021/09/20 07:59:52;;;;;;;8.00;7.07;;;14.70;99.90;;;;;;5035940;28;20277;-71
2021/09/20 08:02:18;;;;;;;8.00;7.13;;;14.80;99.90;;;;;;5034132;28;20477;-73
2021/09/20 08:04:44;;;;;;;8.20;7.40;;;14.90;99.90;;;;;;5035230;28;21000;-72
2021/09/20 08:07:09;;;;;;;8.40;7.57;;;15.00;99.90;;;;;;5036544;28;20443;-72
2021/09/20 08:09:35;;;;;;;7.63;6.60;;;15.10;99.90;;;;;;5024936;28;20433;-73
2021/09/20 08:12:00;;;;;;;7.13;6.43;;;15.20;99.90;;;;;;5034493;28;20214;-74
2021/09/20 08:14:26;;;;;;;8.63;7.73;;;15.10;99.90;;;;;;5034627;28;20525;-72
2021/09/20 08:16:52;;;;;;;7.33;6.60;;;15.10;99.90;;;;;;5051049;28;20273;-72
2021/09/20 08:19:18;;;;;;;8.27;7.47;;;15.20;99.90;;;;;;5022514;28;20281;-71
2021/09/20 08:21:43;;;;;;;7.97;7.20;;;15.30;99.90;;;;;;5025551;28;20989;-71
2021/09/20 08:24:09;;;;;;;7.83;7.03;;;15.30;99.90;;;;;;5029491;28;20194;-72
2021/09/20 08:26:35;;;;;;;7.13;6.50;;;15.20;99.90;;;;;;5021774;28;20182;-71
2021/09/20 08:29:01;;;;;;;8.97;8.07;;;15.30;99.90;;;;;;5033290;28;20210;-71
2021/09/20 08:31:26;;;;;;;10.03;7.80;;;15.30;99.90;;;;;;5041241;28;20957;-71
2021/09/20 08:33:52;;;;;;;8.80;6.93;;;15.10;99.90;;;;;;5036888;28;20626;-72
2021/09/20 08:36:18;;;;;;;8.50;7.50;;;15.10;99.90;;;;;;5040826;28;20191;-73
2021/09/20 08:38:44;;;;;;;7.10;6.30;;;15.10;99.90;;;;;;5052529;28;20197;-72
2021/09/20 08:41:10;;;;;;;8.47;7.23;;;15.10;99.90;;;;;;5023335;28;20210;-72
2021/09/20 08:43:37;;;;;;;7.97;7.28;;;15.30;99.90;;;;;;5032542;28;20428;-72
2021/09/20 08:46:05;;;;;;;7.20;6.50;;;15.40;99.90;;;;;;5034429;28;20174;-73
2021/09/20 08:48:46;;;;;;;7.30;6.63;;;15.40;99.90;;;;;;5033711;28;20421;-72
2021/09/20 08:51:13;;;;;;;8.60;7.80;;;15.50;99.90;;;;;;5044123;28;20406;-72
2021/09/20 08:53:39;;;;;;;7.90;7.10;;;15.60;99.90;;;;;;5033569;28;20275;-72
2021/09/20 08:56:06;;;;;;;7.23;6.43;;;15.70;99.90;;;;;;5034056;28;20433;-72
2021/09/20 08:58:31;;;;;;;8.00;7.20;;;15.70;99.60;;;;;;5034202;28;20433;-72
2021/09/20 09:00:57;;;;;;;6.93;6.33;;;15.90;99.80;;;;;;5034525;28;20457;-72
2021/09/20 09:03:25;;;;;;;7.23;6.53;;;16.00;99.40;;;;;;5034828;28;20195;-71
2021/09/20 09:05:51;;;;;;;7.17;6.57;;;16.10;99.10;;;;;;5026020;28;20710;-73
2021/09/20 09:08:19;;;;;;;8.67;6.67;;;16.10;98.80;;;;;;5034971;28;20428;-72
2021/09/20 09:10:57;;;;;;;6.60;6.00;;;16.20;98.60;;;;;;5040123;28;20206;-70
2021/09/20 09:13:36;;;;;;;7.77;7.07;;;16.20;98.30;;;;;;5035511;28;20445;-71
2021/09/20 09:16:18;;;;;;;7.20;6.50;;;16.30;98.30;;;;;;5029714;28;20447;-73
2021/09/20 09:19:10;;;;;;;6.70;6.17;;;16.30;98.20;;;;;;5055101;28;20480;-72
2021/09/20 09:21:42;;;;;;;8.50;7.60;;;16.30;98.10;;;;;;5062216;28;20506;-73
2021/09/20 09:24:14;;;;;;;8.33;7.53;;;16.10;98.10;;;;;;5038446;28;20933;-72
2021/09/20 09:26:58;;;;;;;7.53;6.83;;;15.90;98.40;;;;;;5036280;28;20444;-72
2021/09/20 09:29:24;;;;;;;7.67;6.97;;;16.00;98.80;;;;;;5023551;28;20417;-71
2021/09/20 09:31:55;;;;;;;7.93;6.60;;;16.20;98.40;;;;;;5037335;28;20433;-72
2021/09/20 09:34:24;;;;;;;6.97;6.30;;;16.30;98.10;;;;;;5036819;28;20433;-72
2021/09/20 09:36:49;;;;;;;7.27;6.30;;;16.40;97.90;;;;;;5039371;28;20767;-72
2021/09/20 09:39:26;;;;;;;7.20;6.50;;;16.50;97.60;;;;;;5036892;28;20410;-73
2021/09/20 09:41:52;;;;;;;6.93;6.23;;;16.60;97.60;;;;;;5037871;28;20190;-72
2021/09/20 09:44:24;;;;;;;6.70;6.10;;;16.70;98.20;;;;;;5036497;28;20487;-72
2021/09/20 09:46:50;;;;;;;6.90;5.73;;;16.80;97.50;;;;;;5037149;28;20205;-72
2021/09/20 09:49:21;;;;;;;6.53;5.90;;;16.90;97.20;;;;;;5041465;28;20420;-74
2021/09/20 09:52:10;;;;;;;6.87;6.10;;;17.00;97.00;;;;;;5037405;28;20304;-72
2021/09/20 09:54:40;;;;;;;6.30;5.70;;;17.00;96.50;;;;;;5050006;28;20427;-72
2021/09/20 09:57:11;;;;;;;7.37;6.67;;;17.10;96.30;;;;;;5037170;28;20736;-73
2021/09/20 09:59:36;;;;;;;6.30;5.80;;;17.10;96.00;;;;;;5036686;28;20461;-72
2021/09/20 10:02:16;;;;;;;6.90;6.20;;;17.20;96.10;;;;;;5035609;28;20779;-73
2021/09/20 10:04:56;;;;;;;7.20;6.47;;;17.30;96.40;;;;;;5024196;28;20183;-72
2021/09/20 10:07:28;;;;;;;6.40;5.90;;;17.40;96.10;;;;;;5021917;28;20413;-71
2021/09/20 10:09:56;;;;;;;7.10;5.23;;;17.50;96.00;;;;;;5036831;28;20414;-73
2021/09/20 10:12:26;;;;;;;5.40;4.87;;;17.60;95.70;;;;;;5036460;28;20446;-73
2021/09/20 10:14:56;;;;;;;5.53;5.03;;;17.60;95.20;;;;;;5029117;28;20774;-73
2021/09/20 10:17:23;;;;;;;5.73;5.13;;;17.60;95.10;;;;;;5033255;28;20425;-72
2021/09/20 10:19:48;;;;;;;5.87;5.37;;;17.50;94.60;;;;;;5036516;28;20822;-72
2021/09/20 10:22:15;;;;;;;6.07;5.50;;;17.60;95.20;;;;;;5036436;28;20505;-73
2021/09/20 10:24:50;;;;;;;6.47;5.97;;;17.70;94.60;;;;;;5034615;28;20225;-72
2021/09/20 10:27:19;;;;;;;6.33;5.60;;;17.70;94.50;;;;;;5022455;28;20954;-72
2021/09/20 10:29:51;;;;;;;7.63;6.43;;;17.80;94.40;;;;;;5044386;28;20475;-73
2021/09/20 10:32:19;;;;;;;10.40;6.10;;;17.90;94.80;;;;;;5043715;28;20441;-73
2021/09/20 10:34:46;;;;;;;6.93;5.53;;;18.00;94.30;;;;;;5036715;28;20489;-72
2021/09/20 10:37:14;;;;;;;5.70;5.20;;;18.10;94.10;;;;;;5035860;28;20446;-72
2021/09/20 10:39:58;;;;;;;5.43;4.93;;;18.20;93.80;;;;;;5036026;28;20460;-72
2021/09/20 10:42:35;;;;;;;5.30;4.90;;;18.20;93.10;;;;;;5035045;28;20525;-72
2021/09/20 10:45:07;;;;;;;5.83;4.90;;;18.20;93.50;;;;;;5033459;28;20453;-72
2021/09/20 10:47:46;;;;;;;5.30;4.80;;;18.20;93.50;;;;;;5023265;28;20441;-71
2021/09/20 10:50:13;;;;;;;5.17;4.70;;;18.20;93.30;;;;;;5029440;28;20450;-73
2021/09/20 10:53:22;;;;;;;5.90;4.53;;;18.30;93.40;;;;;;5025180;28;20489;-72
2021/09/20 10:56:08;;;;;;;5.23;4.50;;;18.30;93.20;;;;;;5033590;28;20758;-72
2021/09/20 10:58:37;;;;;;;5.80;5.30;;;18.20;93.10;;;;;;5033457;28;20496;-73
2021/09/20 11:01:11;;;;;;;6.00;5.40;;;18.30;92.70;;;;;;5028133;28;20476;-72
2021/09/20 11:03:47;;;;;;;7.00;5.70;;;18.40;92.50;;;;;;5034025;28;20468;-73
2021/09/20 11:06:25;;;;;;;5.97;5.50;;;18.50;92.00;;;;;;5035710;28;20567;-74
2021/09/20 11:09:01;;;;;;;6.37;5.87;;;18.30;92.30;;;;;;5037617;28;20937;-73
2021/09/20 11:14:15;;;;;;;6.80;5.70;;;18.10;92.10;;;;;;5048021;28;20448;-71
2021/09/20 11:16:55;;;;;;;6.67;6.07;;;18.20;91.70;;;;;;5039705;28;20429;-73
2021/09/20 11:19:30;;;;;;;6.93;6.27;;;18.30;92.20;;;;;;5035479;28;20465;-72
2021/09/20 11:22:12;;;;;;;6.90;6.30;;;18.50;91.90;;;;;;5026485;28;20446;-73
2021/09/20 11:24:40;;;;;;;6.53;5.90;;;18.60;91.40;;;;;;5031530;28;20412;-72
2021/09/20 11:27:14;;;;;;;6.23;5.63;;;18.60;91.10;;;;;;5035270;28;20413;-73
2021/09/20 11:29:40;;;;;;;6.17;5.63;;;18.50;91.30;;;;;;5033639;28;20424;-72
2021/09/20 11:32:06;;;;;;;6.40;5.57;;;18.50;91.20;;;;;;5034897;28;20441;-72
2021/09/20 11:34:35;;;;;;;6.20;5.70;;;18.30;90.90;;;;;;5024758;28;20430;-72
2021/09/20 11:37:25;;;;;;;6.10;5.60;;;18.30;91.40;;;;;;5019265;28;20548;-71
2021/09/20 11:40:01;;;;;;;6.13;5.55;;;18.40;91.00;;;;;;5027132;28;20822;-72
2021/09/20 11:42:35;;;;;;;6.93;6.37;;;18.40;90.90;;;;;;5034570;28;20190;-72
2021/09/20 11:45:06;;;;;;;6.10;5.60;;;18.50;91.00;;;;;;5033751;28;20420;-74
2021/09/20 11:47:38;;;;;;;6.97;6.37;;;18.50;90.90;;;;;;5034760;28;20410;-72
2021/09/20 11:50:18;;;;;;;6.47;5.97;;;18.60;90.60;;;;;;5040320;28;20417;-72
2021/09/20 11:52:51;;;;;;;7.00;6.30;;;18.30;90.60;;;;;;5034382;28;20436;-72
2021/09/20 11:55:29;;;;;;;6.87;6.27;;;18.00;90.90;;;;;;5016318;28;20425;-72
2021/09/20 11:57:58;;;;;;;6.80;6.20;;;17.80;91.40;;;;;;5034825;28;20409;-73
2021/09/20 12:00:27;;;;;;;6.20;5.70;;;17.80;91.40;;;;;;5034392;28;20531;-71
2021/09/20 12:02:55;;;;;;;7.40;6.70;;;17.80;91.50;;;;;;5034445;28;20433;-72
2021/09/20 12:05:27;;;;;;;6.77;6.10;;;18.00;91.90;;;;;;5028474;28;20428;-72
2021/09/20 12:08:05;;;;;;;6.77;6.03;;;18.00;91.40;;;;;;5034392;28;20402;-70
2021/09/20 12:10:39;;;;;;;6.20;5.67;;;18.10;90.80;;;;;;5034004;28;20437;-72
2021/09/20 12:13:17;;;;;;;6.20;5.70;;;18.00;90.90;;;;;;5033008;28;20442;-72
2021/09/20 12:15:45;;;;;;;7.47;6.67;;;18.00;91.30;;;;;;5034390;28;20445;-72
2021/09/20 12:18:29;;;;;;;6.67;6.07;;;18.20;90.70;;;;;;5034497;28;20414;-72
2021/09/20 12:21:15;;;;;;;7.50;6.80;;;18.30;91.00;;;;;;5033809;28;20564;-72
2021/09/20 12:23:48;;;;;;;7.23;6.53;;;18.30;90.90;;;;;;5029235;28;20501;-72
2021/09/20 12:26:17;;;;;;;7.07;6.47;;;18.50;91.10;;;;;;5028759;28;20453;-71
2021/09/20 12:29:00;;;;;;;8.07;7.33;;;18.50;90.50;;;;;;5037045;28;20441;-72
2021/09/20 12:31:37;;;;;;;7.50;6.80;;;18.40;90.40;;;;;;5048552;28;20465;-73
2021/09/20 12:34:16;;;;;;;7.50;6.80;;;18.20;90.70;;;;;;5027036;28;20468;-73
2021/09/20 12:36:52;;;;;;;6.70;6.10;;;18.30;90.90;;;;;;5040494;28;20442;-72
2021/09/20 12:39:28;;;;;;;7.50;6.90;;;18.40;90.70;;;;;;5008154;28;20484;-72
2021/09/20 12:41:56;;;;;;;7.30;6.63;;;18.40;90.50;;;;;;5031712;28;20455;-74
2021/09/20 12:44:39;;;;;;;6.77;6.27;;;18.40;90.70;;;;;;5032715;28;20445;-73
2021/09/20 12:47:14;;;;;;;6.97;6.17;;;18.50;90.80;;;;;;5033463;28;20456;-73
2021/09/20 12:49:41;;;;;;;7.93;7.13;;;18.60;90.50;;;;;;5030625;28;20452;-75